메인 페이지
METAR-TAF:

METAR-TAF

공항 :

Limon Municipal Airport

Limon, 콜로라도, 미국

위도: 39-16-24N, 경도: 103-40-00W, 고도: 1635m

현재 날씨관측

예보는 45분 전, 00:55시(UTC)에 발표되었습니다.
서북서4kt
온도 -1°C
습도 74%
기압 1015 hPa
시정: 16.1km
고도 9000ft 상공 구름 보통

METAR: KLIC 170055Z AUTO 30004KT 10SM SCT090 M01/M05 A2997 RMK AO2 SLP165 T10111050

시각: 18:40 (01:40 UTC)


TAF: 누락

4,000개 이상의 공항 관측 자료 및 예보 (METAR 및 TAF 보고).

지도상에서 검색 가능한 기상관측소가 노란 점과 빨간 점으로 표시되어 있습니다.

기상관측소 명을 보려면 표시 위로 마우스를 이동하세요.

날씨 관측과 예보를 보려면 클릭하세요.

지도 변경 : 확대하려면 엑스 표시가 있는 녹색 버튼, 축소하려면 빼기 표시가 있는 녹색 버튼, 다음 페이지의 지도를 보려면 녹색 화살표를 클릭하세요.


METAR-TAF: